Nearby METAR Reports

 

KEDC - Austin Exec, Texas, USA
Distance from station: SSE 10mi, 17km
Updated: Fri, 20-Sep-2019 2:15am CDT
Partly cloudy
Partly cloudy
 Wind from SSE
Wind: SSE 7 mph , 11 km/h
Temperature: 77°F , 25°C
Dew Point: 75°F , 24°C
Humidity: 94%
Barometer: 29.91 inHg , 1012.9 hPa
Clouds: Partly cloudy
Visibility: 9 miles , 14 km
Cloud details: Partly cloudy 600 ft
Partly cloudy 5000 ft
2019/09/20 07:15 KEDC 200715Z AUTO 16006KT 9SM SCT006 SCT050 25/24 A2991 RMK AO2
KGTU - Georgetown, Texas, USA
Distance from station: NNW 11mi, 17km
Updated: Fri, 20-Sep-2019 1:56am CDT
Overcast
Overcast
 Wind from SSE
Wind: SSE 7 mph , 11 km/h
Temperature: 79°F , 26°C
Dew Point: 75°F , 24°C
Humidity: 89%
Barometer: 29.93 inHg , 1013.5 hPa
Clouds: Overcast
Visibility: 10 miles , 16 km
Cloud details: Overcast 1000 ft
2019/09/20 06:56 KGTU 200656Z AUTO 15006KT 10SM OVC010 26/24 A2993 RMK AO2 SLP125 T02560239
 
KATT - Austin/Mabry, Texas, USA
Distance from station: SSW 18mi, 30km
Updated: Fri, 20-Sep-2019 2:24am CDT
Mostly cloudy
Mostly cloudy
 Wind from SSE
Wind: SSE 5 mph , 7 km/h
Temperature: 81°F , 27°C
Heat Index: 87°F , 31°C
Dew Point: 75°F , 24°C
Humidity: 84%
Barometer: 29.91 inHg , 1012.9 hPa
Clouds: Mostly cloudy
Visibility: 10 miles , 16 km
Cloud details: Mostly cloudy 1100 ft
2019/09/20 07:24 KATT 200724Z AUTO 16004KT 10SM BKN011 27/24 A2991 RMK AO2 T02670239
KRYW - Lago Vista, Texas, USA
Distance from station: W 22mi, 35km
Updated: Fri, 20-Sep-2019 2:15am CDT
Overcast
Overcast
 Wind from S
Wind: S 7 mph , 11 km/h
Temperature: 77°F , 25°C
Dew Point: 75°F , 24°C
Humidity: 94%
Barometer: 29.93 inHg , 1013.5 hPa
Clouds: Overcast
Visibility: 10 miles , 16 km
Cloud details: Overcast 600 ft
2019/09/20 07:15 KRYW 200715Z AUTO 17006KT 10SM OVC006 25/24 A2993 RMK AO2 T02470237
 
KAUS - Austin, Texas, USA
Distance from station: S 25mi, 41km
Updated: Fri, 20-Sep-2019 1:53am CDT
Few Clouds
Few Clouds
 Wind from S
Wind: S 7 mph , 11 km/h
Temperature: 81°F , 27°C
Heat Index: 88°F , 31°C
Dew Point: 77°F , 25°C
Humidity: 89%
Barometer: 29.90 inHg , 1012.5 hPa
Clouds: Few Clouds
Visibility: 10 miles , 16 km
Cloud details: Few Clouds 3200 ft
Few Clouds 5000 ft
2019/09/20 06:53 KAUS 200653Z 17006KT 10SM FEW032 FEW050 27/25 A2990 RMK AO2 SLP112 T02670250 $
KILE - Killeen Muni, Texas, USA
Distance from station: N 36mi, 58km
Updated: Fri, 20-Sep-2019 1:56am CDT
Overcast
Overcast
 
Temperature: 79°F , 26°C
Dew Point: 75°F , 24°C
Humidity: 89%
Barometer: 29.92 inHg , 1013.2 hPa
Clouds: Overcast
Visibility: 10 miles , 16 km
Cloud details: Overcast 1100 ft
2019/09/20 06:56 KILE 200656Z AUTO 10SM OVC011 26/24 A2992 RMK AO2 SLP116 T02610239 $
 
KGRK - Gray/Ft Hood, Texas, USA
Distance from station: NNW 38mi, 62km
Updated: Fri, 20-Sep-2019 1:58am CDT
Overcast
Overcast
 Wind from SE
Wind: SE 9 mph , 15 km/h
Temperature: 77°F , 25°C
Dew Point: 73°F , 23°C
Humidity: 89%
Barometer: 29.90 inHg , 1012.5 hPa
Clouds: Overcast
Visibility: 10 miles , 16 km
Cloud details: Overcast 1100 ft
2019/09/20 06:58 KGRK 200658Z AUTO 14008KT 10SM OVC011 25/23 A2990 RMK AO2 SLP113 T02540231
KBMQ - Burnet, Texas, USA
Distance from station: WNW 39mi, 64km
Updated: Fri, 20-Sep-2019 1:53am CDT
Overcast
Overcast
 Wind from SSE
Wind: SSE 9 mph , 15 km/h
Temperature: 77°F , 25°C
Dew Point: 73°F , 23°C
Humidity: 89%
Barometer: 29.94 inHg , 1013.9 hPa
Clouds: Overcast
Visibility: 10 miles , 16 km
Cloud details: Overcast 900 ft
2019/09/20 06:53 KBMQ 200653Z AUTO 16008KT 10SM OVC009 25/23 A2994 RMK AO2 SLP117 T02500228
 
KHLR - Ft Hood/Killeen, Texas, USA
Distance from station: N 41mi, 66km
Updated: Fri, 20-Sep-2019 1:58am CDT
Overcast
Overcast
 Wind from SSE
Wind: SSE 9 mph , 15 km/h
Temperature: 79°F , 26°C
Dew Point: 75°F , 24°C
Humidity: 89%
Barometer: 29.91 inHg , 1012.9 hPa
Clouds: Overcast
Visibility: 9 miles , 14 km
Cloud details: Overcast 1100 ft
2019/09/20 06:58 KHLR 200658Z AUTO 16008KT 9SM OVC011 26/24 A2991 RMK AO2 SLP115 T02600235
KTPL - Temple/Miller, Texas, USA
Distance from station: NNE 42mi, 68km
Updated: Fri, 20-Sep-2019 1:51am CDT
Overcast
Overcast
 Wind from SSE
Wind: SSE 10 mph , 17 km/h
Temperature: 79°F , 26°C
Dew Point: 77°F , 25°C
Humidity: 94%
Barometer: 29.92 inHg , 1013.2 hPa
Clouds: Overcast
Visibility: 10 miles , 16 km
Cloud details: Overcast 1100 ft
2019/09/20 06:51 KTPL 200651Z AUTO 15009KT 10SM OVC011 26/25 A2992 RMK AO2 SLP119 T02560250
 
KT35 - Cameron, Texas, USA
Distance from station: ENE 45mi, 72km
Updated: Fri, 20-Sep-2019 2:15am CDT
Overcast
Overcast
 Wind from SSE
Wind: SSE 6 mph , 9 km/h
Temperature: 77°F , 25°C
Dew Point: 73°F , 23°C
Humidity: 89%
Barometer: 29.92 inHg , 1013.2 hPa
Clouds: Overcast
Visibility: 10 miles , 16 km
Cloud details: Overcast 900 ft
2019/09/20 07:15 KT35 200715Z AUTO 15005KT 10SM OVC009 25/23 A2992 RMK AO2 T02520233
KDZB - Horseshoe Bay, Texas, USA
Distance from station: W 45mi, 73km
Updated: Fri, 20-Sep-2019 2:21am CDT
Mostly cloudy
Mostly cloudy
 Wind from SSE
Wind: SSE 6 mph , 9 km/h
Temperature: 79°F , 26°C
Dew Point: 73°F , 23°C
Humidity: 84%
Barometer: 29.91 inHg , 1012.9 hPa
Clouds: Mostly cloudy
Visibility: 10 miles , 16 km
Cloud details: Partly cloudy 2200 ft
Mostly cloudy 2700 ft
2019/09/20 07:21 KDZB 200721Z AUTO 15005KT 10SM SCT022 BKN027 26/23 A2991 RMK AO2 LTG DSNT NW
 
KGYB - Giddings-Lee, Texas, USA
Distance from station: SE 45mi, 73km
Updated: Fri, 20-Sep-2019 2:15am CDT
Overcast
Overcast
 Wind from SSE
Wind: SSE 7 mph , 11 km/h
Temperature: 79°F , 26°C
Dew Point: 79°F , 26°C
Humidity: 100%
Barometer: 29.92 inHg , 1013.2 hPa
Clouds: Overcast
Visibility: 10 miles , 16 km
Cloud details: Overcast 700 ft
2019/09/20 07:15 KGYB 200715Z AUTO 16006KT 10SM OVC007 26/26 A2992 RMK AO2 T02600256
KHYI - San Marcos, Texas, USA
Distance from station: SSW 48mi, 78km
Updated: Fri, 20-Sep-2019 1:56am CDT
Mostly cloudy
Mostly cloudy
 Wind from SSE
Wind: SSE 9 mph , 15 km/h
Temperature: 79°F , 26°C
Dew Point: 75°F , 24°C
Humidity: 89%
Barometer: 29.91 inHg , 1012.9 hPa
Clouds: Mostly cloudy
Visibility: 10 miles , 16 km
Cloud details: Few Clouds 3400 ft
Partly cloudy 5500 ft
Mostly cloudy 7000 ft
2019/09/20 06:56 KHYI 200656Z AUTO 15008KT 10SM FEW034 SCT055 BKN070 26/24 A2991 RMK AO2 SLPNO T02610244
 
KLZZ - Lampasas, Texas, USA
Distance from station: NW 52mi, 84km
Updated: Fri, 20-Sep-2019 1:35am CDT
Overcast
Overcast
 Wind from SE
Wind: SE 3 mph , 6 km/h
Temperature: 77°F , 25°C
Dew Point: 72°F , 22°C
Humidity: 83%
Barometer: 29.91 inHg , 1012.9 hPa
Clouds: Overcast
Visibility: 10 miles , 16 km
Cloud details: Overcast 1400 ft
2019/09/20 06:35 KLZZ 200635Z AUTO 14003KT 10SM OVC014 25/22 A2991 RMK AO2 T02500215
KRWV - Caldwell, Texas, USA
Distance from station: E 54mi, 87km
Updated: Fri, 20-Sep-2019 2:15am CDT
Overcast
Overcast
 Wind from SSE
Wind: SSE 10 mph , 17 km/h
Temperature: 79°F , 26°C
Dew Point: 75°F , 24°C
Humidity: 89%
Barometer: 29.93 inHg , 1013.5 hPa
Clouds: Overcast
Visibility: 10 miles , 16 km
Cloud details: Mostly cloudy 1000 ft
Overcast 2100 ft
2019/09/20 07:15 KRWV 200715Z AUTO 15009KT 10SM BKN010 OVC021 26/24 A2993 RMK AO2 T02580243
 
K3T5 - La Grange, Texas, USA
Distance from station: SE 59mi, 95km
Updated: Fri, 20-Sep-2019 2:35am CDT
Overcast
Overcast
 Wind from SSE
Wind: SSE 6 mph , 9 km/h
Temperature: 81°F , 27°C
Heat Index: 91°F , 33°C
Dew Point: 81°F , 27°C
Humidity: 100%
Barometer: 29.90 inHg , 1012.5 hPa
Clouds: Overcast
Visibility: 10 miles , 16 km
Cloud details: Mostly cloudy 900 ft
Overcast 1500 ft
2019/09/20 07:35 K3T5 200735Z AUTO 15005KT 10SM BKN009 OVC015 27/27 A2990 RMK AO2 T02680267
KGOP - Gatesville, Texas, USA
Distance from station: N 61mi, 99km
Updated: Fri, 20-Sep-2019 2:15am CDT
Mostly cloudy
Mostly cloudy
 Wind from varies
Wind: varies 6 mph , 9 km/h
Temperature: 77°F , 25°C
Dew Point: 73°F , 23°C
Humidity: 89%
Barometer: 29.94 inHg , 1013.9 hPa
Clouds: Mostly cloudy
Visibility: 10 miles , 16 km
Cloud details: Mostly cloudy 1300 ft
2019/09/20 07:15 KGOP 200715Z AUTO VRB05KT 10SM BKN013 25/23 A2994 RMK AO2
 
KLHB - Hearne Muni, Texas, USA
Distance from station: ENE 63mi, 101km
Updated: Fri, 20-Sep-2019 2:15am CDT
Overcast
Overcast
 Wind from SE
Wind: SE 8 mph , 13 km/h
Temperature: 79°F , 26°C
Dew Point: 75°F , 24°C
Humidity: 89%
Barometer: 29.94 inHg , 1013.9 hPa
Clouds: Overcast
Visibility: 10 miles , 16 km
Cloud details: Overcast 1000 ft
2019/09/20 07:15 KLHB 200715Z AUTO 13007KT 10SM OVC010 26/24 A2994 RMK AO2 T02590238
KBAZ - New Braunfels, Texas, USA
Distance from station: SSW 63mi, 102km
Updated: Fri, 20-Sep-2019 2:14am CDT
Mostly cloudy
Mostly cloudy
 Wind from S
Wind: S 8 mph , 13 km/h
Temperature: 81°F , 27°C
Heat Index: 88°F , 31°C
Dew Point: 77°F , 25°C
Humidity: 89%
Barometer: 29.89 inHg , 1012.2 hPa
Clouds: Mostly cloudy
Visibility: 10 miles , 16 km
Cloud details: Partly cloudy 2000 ft
Partly cloudy 2800 ft
Mostly cloudy 11000 ft
2019/09/20 07:14 KBAZ 200714Z AUTO 17007KT 10SM SCT020 SCT028 BKN110 27/25 A2989 RMK AO2 T02670250